sensor_id;sensor_type;location;lat;lon;timestamp;P1;durP1;ratioP1;P2;durP2;ratioP2
64543;SDS011;50936;51.660;5.616;2023-03-26T00:01:26;28.15;;;6.63;;
64543;SDS011;50936;51.660;5.616;2023-03-26T00:03:55;24.40;;;5.30;;
64543;SDS011;50936;51.660;5.616;2023-03-26T00:06:26;22.30;;;4.93;;
64543;SDS011;50936;51.660;5.616;2023-03-26T00:08:56;23.45;;;5.47;;
64543;SDS011;50936;51.660;5.616;2023-03-26T00:11:25;22.52;;;4.93;;
64543;SDS011;50936;51.660;5.616;2023-03-26T00:13:54;25.38;;;4.43;;
64543;SDS011;50936;51.660;5.616;2023-03-26T00:16:24;23.77;;;5.70;;
64543;SDS011;50936;51.660;5.616;2023-03-26T00:18:57;26.52;;;5.70;;
64543;SDS011;50936;51.660;5.616;2023-03-26T00:21:25;16.27;;;4.28;;
64543;SDS011;50936;51.660;5.616;2023-03-26T00:23:56;31.80;;;5.28;;
64543;SDS011;50936;51.660;5.616;2023-03-26T00:26:26;11.68;;;3.28;;
64543;SDS011;50936;51.660;5.616;2023-03-26T00:28:56;24.23;;;5.72;;
64543;SDS011;50936;51.660;5.616;2023-03-26T00:31:25;23.67;;;5.20;;
64543;SDS011;50936;51.660;5.616;2023-03-26T00:33:53;22.60;;;3.92;;
64543;SDS011;50936;51.660;5.616;2023-03-26T00:36:21;28.35;;;5.13;;
64543;SDS011;50936;51.660;5.616;2023-03-26T00:38:51;29.00;;;5.30;;
64543;SDS011;50936;51.660;5.616;2023-03-26T00:41:20;16.23;;;3.58;;
64543;SDS011;50936;51.660;5.616;2023-03-26T00:43:57;20.80;;;4.47;;
64543;SDS011;50936;51.660;5.616;2023-03-26T00:46:26;20.52;;;4.40;;
64543;SDS011;50936;51.660;5.616;2023-03-26T00:48:56;21.58;;;3.88;;
64543;SDS011;50936;51.660;5.616;2023-03-26T00:51:26;30.33;;;4.85;;
64543;SDS011;50936;51.660;5.616;2023-03-26T00:53:54;30.38;;;5.22;;
64543;SDS011;50936;51.660;5.616;2023-03-26T00:56:22;28.90;;;4.45;;
64543;SDS011;50936;51.660;5.616;2023-03-26T00:58:50;27.92;;;6.03;;
64543;SDS011;50936;51.660;5.616;2023-03-26T01:01:18;24.70;;;5.07;;
64543;SDS011;50936;51.660;5.616;2023-03-26T01:03:58;29.40;;;4.90;;
64543;SDS011;50936;51.660;5.616;2023-03-26T01:06:58;26.50;;;5.40;;
64543;SDS011;50936;51.660;5.616;2023-03-26T01:09:48;22.92;;;4.45;;
64543;SDS011;50936;51.660;5.616;2023-03-26T01:12:20;29.92;;;4.55;;
64543;SDS011;50936;51.660;5.616;2023-03-26T01:14:52;29.42;;;4.75;;
64543;SDS011;50936;51.660;5.616;2023-03-26T01:17:26;31.55;;;4.82;;
64543;SDS011;50936;51.660;5.616;2023-03-26T01:22:53;27.20;;;4.50;;
64543;SDS011;50936;51.660;5.616;2023-03-26T01:25:31;27.00;;;5.07;;
64543;SDS011;50936;51.660;5.616;2023-03-26T01:28:11;18.88;;;3.63;;
64543;SDS011;50936;51.660;5.616;2023-03-26T01:30:51;11.80;;;2.83;;
64543;SDS011;50936;51.660;5.616;2023-03-26T01:33:41;25.92;;;4.70;;
64543;SDS011;50936;51.660;5.616;2023-03-26T01:39:01;23.30;;;4.15;;
64543;SDS011;50936;51.660;5.616;2023-03-26T01:41:44;26.13;;;4.20;;
64543;SDS011;50936;51.660;5.616;2023-03-26T01:44:26;30.48;;;4.80;;
64543;SDS011;50936;51.660;5.616;2023-03-26T01:46:59;17.05;;;3.97;;
64543;SDS011;50936;51.660;5.616;2023-03-26T01:49:27;24.88;;;3.47;;
64543;SDS011;50936;51.660;5.616;2023-03-26T01:51:55;23.23;;;4.68;;
64543;SDS011;50936;51.660;5.616;2023-03-26T01:54:25;27.92;;;3.90;;
64543;SDS011;50936;51.660;5.616;2023-03-26T01:57:07;15.10;;;3.25;;
64543;SDS011;50936;51.660;5.616;2023-03-26T02:06:00;25.58;;;3.92;;
64543;SDS011;50936;51.660;5.616;2023-03-26T02:08:45;14.63;;;2.83;;
64543;SDS011;50936;51.660;5.616;2023-03-26T02:11:17;27.38;;;4.72;;
64543;SDS011;50936;51.660;5.616;2023-03-26T02:13:45;29.73;;;4.55;;
64543;SDS011;50936;51.660;5.616;2023-03-26T02:16:13;26.95;;;4.85;;
64543;SDS011;50936;51.660;5.616;2023-03-26T02:18:43;32.13;;;4.25;;
64543;SDS011;50936;51.660;5.616;2023-03-26T02:21:14;24.02;;;4.03;;
64543;SDS011;50936;51.660;5.616;2023-03-26T02:23:48;19.20;;;3.83;;
64543;SDS011;50936;51.660;5.616;2023-03-26T02:26:31;18.45;;;4.32;;
64543;SDS011;50936;51.660;5.616;2023-03-26T02:29:06;29.65;;;5.43;;
64543;SDS011;50936;51.660;5.616;2023-03-26T02:31:35;27.90;;;5.15;;
64543;SDS011;50936;51.660;5.616;2023-03-26T02:34:03;25.20;;;4.50;;
64543;SDS011;50936;51.660;5.616;2023-03-26T02:36:33;18.45;;;3.97;;
64543;SDS011;50936;51.660;5.616;2023-03-26T02:39:03;31.77;;;4.00;;
64543;SDS011;50936;51.660;5.616;2023-03-26T02:41:33;23.00;;;4.32;;
64543;SDS011;50936;51.660;5.616;2023-03-26T02:44:05;24.92;;;3.65;;
64543;SDS011;50936;51.660;5.616;2023-03-26T02:46:52;33.90;;;4.30;;
64543;SDS011;50936;51.660;5.616;2023-03-26T02:49:39;30.50;;;4.10;;
64543;SDS011;50936;51.660;5.616;2023-03-26T02:52:07;28.00;;;5.03;;
64543;SDS011;50936;51.660;5.616;2023-03-26T02:54:34;24.08;;;3.60;;
64543;SDS011;50936;51.660;5.616;2023-03-26T02:57:17;25.92;;;3.38;;
64543;SDS011;50936;51.660;5.616;2023-03-26T03:00:02;28.33;;;4.07;;
64543;SDS011;50936;51.660;5.616;2023-03-26T03:02:34;28.50;;;4.15;;
64543;SDS011;50936;51.660;5.616;2023-03-26T03:05:23;20.42;;;4.03;;
64543;SDS011;50936;51.660;5.616;2023-03-26T03:08:11;27.23;;;3.70;;
64543;SDS011;50936;51.660;5.616;2023-03-26T03:10:59;29.17;;;4.55;;
64543;SDS011;50936;51.660;5.616;2023-03-26T03:13:42;26.85;;;3.80;;
64543;SDS011;50936;51.660;5.616;2023-03-26T03:16:14;18.40;;;3.97;;
64543;SDS011;50936;51.660;5.616;2023-03-26T03:18:41;28.95;;;3.95;;
64543;SDS011;50936;51.660;5.616;2023-03-26T03:21:09;16.23;;;3.15;;
64543;SDS011;50936;51.660;5.616;2023-03-26T03:23:35;24.27;;;3.65;;
64543;SDS011;50936;51.660;5.616;2023-03-26T03:26:13;18.17;;;3.17;;
64543;SDS011;50936;51.660;5.616;2023-03-26T03:28:51;18.52;;;3.80;;
64543;SDS011;50936;51.660;5.616;2023-03-26T03:31:19;30.20;;;4.18;;
64543;SDS011;50936;51.660;5.616;2023-03-26T03:33:47;16.73;;;3.03;;
64543;SDS011;50936;51.660;5.616;2023-03-26T03:36:16;26.70;;;4.28;;
64543;SDS011;50936;51.660;5.616;2023-03-26T03:39:03;30.58;;;4.00;;
64543;SDS011;50936;51.660;5.616;2023-03-26T03:41:31;25.33;;;3.63;;
64543;SDS011;50936;51.660;5.616;2023-03-26T03:44:01;21.13;;;3.70;;
64543;SDS011;50936;51.660;5.616;2023-03-26T03:46:30;22.83;;;3.47;;
64543;SDS011;50936;51.660;5.616;2023-03-26T03:48:57;24.88;;;4.18;;
64543;SDS011;50936;51.660;5.616;2023-03-26T03:51:29;27.02;;;3.75;;
64543;SDS011;50936;51.660;5.616;2023-03-26T03:54:10;21.17;;;3.53;;
64543;SDS011;50936;51.660;5.616;2023-03-26T03:56:56;19.42;;;3.47;;
64543;SDS011;50936;51.660;5.616;2023-03-26T03:59:34;18.05;;;4.03;;
64543;SDS011;50936;51.660;5.616;2023-03-26T04:02:04;31.40;;;3.25;;
64543;SDS011;50936;51.660;5.616;2023-03-26T04:04:38;20.55;;;3.30;;
64543;SDS011;50936;51.660;5.616;2023-03-26T04:07:09;22.70;;;3.83;;
64543;SDS011;50936;51.660;5.616;2023-03-26T04:10:06;19.92;;;2.88;;
64543;SDS011;50936;51.660;5.616;2023-03-26T04:12:53;22.75;;;3.60;;
64543;SDS011;50936;51.660;5.616;2023-03-26T04:15:37;22.80;;;3.55;;
64543;SDS011;50936;51.660;5.616;2023-03-26T04:18:05;18.85;;;3.15;;
64543;SDS011;50936;51.660;5.616;2023-03-26T04:20:37;20.27;;;3.22;;
64543;SDS011;50936;51.660;5.616;2023-03-26T04:23:17;23.00;;;3.38;;
64543;SDS011;50936;51.660;5.616;2023-03-26T04:25:49;16.27;;;3.00;;
64543;SDS011;50936;51.660;5.616;2023-03-26T04:28:30;24.35;;;2.95;;
64543;SDS011;50936;51.660;5.616;2023-03-26T04:31:22;22.13;;;4.15;;
64543;SDS011;50936;51.660;5.616;2023-03-26T04:33:58;19.73;;;3.38;;
64543;SDS011;50936;51.660;5.616;2023-03-26T04:36:41;22.25;;;3.70;;
64543;SDS011;50936;51.660;5.616;2023-03-26T04:39:09;15.75;;;2.80;;
64543;SDS011;50936;51.660;5.616;2023-03-26T04:41:59;29.95;;;3.53;;
64543;SDS011;50936;51.660;5.616;2023-03-26T04:44:32;23.58;;;3.55;;
64543;SDS011;50936;51.660;5.616;2023-03-26T04:47:05;22.17;;;4.25;;
64543;SDS011;50936;51.660;5.616;2023-03-26T04:49:40;18.35;;;3.20;;
64543;SDS011;50936;51.660;5.616;2023-03-26T04:52:09;21.65;;;3.08;;
64543;SDS011;50936;51.660;5.616;2023-03-26T04:54:58;16.67;;;3.25;;
64543;SDS011;50936;51.660;5.616;2023-03-26T04:57:33;20.10;;;3.72;;
64543;SDS011;50936;51.660;5.616;2023-03-26T05:00:34;18.98;;;3.63;;
64543;SDS011;50936;51.660;5.616;2023-03-26T05:03:01;10.45;;;3.10;;
64543;SDS011;50936;51.660;5.616;2023-03-26T05:05:28;13.38;;;3.15;;
64543;SDS011;50936;51.660;5.616;2023-03-26T05:07:57;16.85;;;3.15;;
64543;SDS011;50936;51.660;5.616;2023-03-26T05:10:24;13.00;;;2.80;;
64543;SDS011;50936;51.660;5.616;2023-03-26T05:13:00;10.55;;;2.80;;
64543;SDS011;50936;51.660;5.616;2023-03-26T05:15:35;19.05;;;3.92;;
64543;SDS011;50936;51.660;5.616;2023-03-26T05:18:17;19.17;;;3.75;;
64543;SDS011;50936;51.660;5.616;2023-03-26T05:20:48;20.73;;;3.60;;
64543;SDS011;50936;51.660;5.616;2023-03-26T05:23:16;14.52;;;3.42;;
64543;SDS011;50936;51.660;5.616;2023-03-26T05:25:49;18.98;;;3.30;;
64543;SDS011;50936;51.660;5.616;2023-03-26T05:28:19;22.85;;;3.53;;
64543;SDS011;50936;51.660;5.616;2023-03-26T05:31:05;19.10;;;3.95;;
64543;SDS011;50936;51.660;5.616;2023-03-26T05:36:08;24.02;;;3.53;;
64543;SDS011;50936;51.660;5.616;2023-03-26T05:38:57;18.08;;;3.40;;
64543;SDS011;50936;51.660;5.616;2023-03-26T05:42:00;20.05;;;3.83;;
64543;SDS011;50936;51.660;5.616;2023-03-26T05:44:41;16.20;;;3.13;;
64543;SDS011;50936;51.660;5.616;2023-03-26T05:47:16;17.50;;;3.67;;
64543;SDS011;50936;51.660;5.616;2023-03-26T05:49:43;17.20;;;3.30;;
64543;SDS011;50936;51.660;5.616;2023-03-26T05:52:12;21.92;;;4.05;;
64543;SDS011;50936;51.660;5.616;2023-03-26T05:55:00;21.60;;;4.53;;
64543;SDS011;50936;51.660;5.616;2023-03-26T05:57:46;19.88;;;3.70;;
64543;SDS011;50936;51.660;5.616;2023-03-26T06:00:32;20.52;;;3.72;;
64543;SDS011;50936;51.660;5.616;2023-03-26T06:03:00;13.00;;;3.45;;
64543;SDS011;50936;51.660;5.616;2023-03-26T06:05:47;15.13;;;3.58;;
64543;SDS011;50936;51.660;5.616;2023-03-26T06:08:27;15.50;;;3.30;;
64543;SDS011;50936;51.660;5.616;2023-03-26T06:11:02;13.75;;;2.97;;
64543;SDS011;50936;51.660;5.616;2023-03-26T06:13:36;23.70;;;3.72;;
64543;SDS011;50936;51.660;5.616;2023-03-26T06:16:03;19.88;;;4.00;;
64543;SDS011;50936;51.660;5.616;2023-03-26T06:18:37;25.38;;;4.97;;
64543;SDS011;50936;51.660;5.616;2023-03-26T06:21:24;25.40;;;4.00;;
64543;SDS011;50936;51.660;5.616;2023-03-26T06:24:00;20.83;;;4.00;;
64543;SDS011;50936;51.660;5.616;2023-03-26T06:26:35;17.67;;;3.42;;
64543;SDS011;50936;51.660;5.616;2023-03-26T06:29:14;19.15;;;3.90;;
64543;SDS011;50936;51.660;5.616;2023-03-26T06:31:56;20.27;;;3.78;;
64543;SDS011;50936;51.660;5.616;2023-03-26T06:34:49;19.88;;;3.50;;
64543;SDS011;50936;51.660;5.616;2023-03-26T06:37:16;16.67;;;4.75;;
64543;SDS011;50936;51.660;5.616;2023-03-26T06:39:44;14.90;;;4.32;;
64543;SDS011;50936;51.660;5.616;2023-03-26T06:42:15;23.58;;;4.43;;
64543;SDS011;50936;51.660;5.616;2023-03-26T06:45:00;19.83;;;3.65;;
64543;SDS011;50936;51.660;5.616;2023-03-26T06:47:33;18.70;;;3.95;;
64543;SDS011;50936;51.660;5.616;2023-03-26T06:50:19;19.33;;;3.92;;
64543;SDS011;50936;51.660;5.616;2023-03-26T06:53:04;26.65;;;4.28;;
64543;SDS011;50936;51.660;5.616;2023-03-26T06:55:43;15.90;;;4.25;;
64543;SDS011;50936;51.660;5.616;2023-03-26T06:58:22;16.23;;;3.80;;
64543;SDS011;50936;51.660;5.616;2023-03-26T07:01:08;17.65;;;3.72;;
64543;SDS011;50936;51.660;5.616;2023-03-26T07:03:53;15.27;;;4.25;;
64543;SDS011;50936;51.660;5.616;2023-03-26T07:06:51;17.48;;;4.43;;
64543;SDS011;50936;51.660;5.616;2023-03-26T07:09:37;22.20;;;5.00;;
64543;SDS011;50936;51.660;5.616;2023-03-26T07:12:22;17.58;;;3.83;;
64543;SDS011;50936;51.660;5.616;2023-03-26T07:15:07;18.90;;;4.18;;
64543;SDS011;50936;51.660;5.616;2023-03-26T07:18:11;18.13;;;5.10;;
64543;SDS011;50936;51.660;5.616;2023-03-26T07:20:42;16.92;;;4.68;;
64543;SDS011;50936;51.660;5.616;2023-03-26T07:23:11;16.40;;;4.95;;
64543;SDS011;50936;51.660;5.616;2023-03-26T07:26:22;25.58;;;4.80;;
64543;SDS011;50936;51.660;5.616;2023-03-26T07:29:22;22.15;;;5.20;;
64543;SDS011;50936;51.660;5.616;2023-03-26T07:32:29;21.42;;;4.60;;
64543;SDS011;50936;51.660;5.616;2023-03-26T07:35:45;19.48;;;4.53;;
64543;SDS011;50936;51.660;5.616;2023-03-26T07:41:44;17.33;;;4.57;;
64543;SDS011;50936;51.660;5.616;2023-03-26T07:45:40;24.75;;;4.60;;
64543;SDS011;50936;51.660;5.616;2023-03-26T07:48:00;22.27;;;5.00;;
64543;SDS011;50936;51.660;5.616;2023-03-26T07:50:53;21.65;;;5.32;;
64543;SDS011;50936;51.660;5.616;2023-03-26T07:53:29;15.95;;;4.32;;
64543;SDS011;50936;51.660;5.616;2023-03-26T08:00:00;18.77;;;4.88;;
64543;SDS011;50936;51.660;5.616;2023-03-26T08:05:56;13.55;;;4.50;;
64543;SDS011;50936;51.660;5.616;2023-03-26T08:20:49;12.85;;;4.45;;
64543;SDS011;50936;51.660;5.616;2023-03-26T08:29:54;13.85;;;4.20;;
64543;SDS011;50936;51.660;5.616;2023-03-26T08:32:36;12.63;;;4.50;;
64543;SDS011;50936;51.660;5.616;2023-03-26T08:35:03;15.00;;;4.85;;
64543;SDS011;50936;51.660;5.616;2023-03-26T08:37:31;17.17;;;4.72;;
64543;SDS011;50936;51.660;5.616;2023-03-26T08:39:57;12.90;;;4.70;;
64543;SDS011;50936;51.660;5.616;2023-03-26T08:45:51;18.08;;;5.28;;
64543;SDS011;50936;51.660;5.616;2023-03-26T08:48:52;21.98;;;5.10;;
64543;SDS011;50936;51.660;5.616;2023-03-26T09:09:56;11.63;;;5.45;;
64543;SDS011;50936;51.660;5.616;2023-03-26T09:16:13;19.35;;;5.75;;
64543;SDS011;50936;51.660;5.616;2023-03-26T09:37:24;17.55;;;6.55;;
64543;SDS011;50936;51.660;5.616;2023-03-26T09:40:31;13.52;;;6.97;;
64543;SDS011;50936;51.660;5.616;2023-03-26T09:46:48;12.27;;;6.00;;
64543;SDS011;50936;51.660;5.616;2023-03-26T09:55:05;11.57;;;5.22;;
64543;SDS011;50936;51.660;5.616;2023-03-26T09:57:55;10.60;;;5.30;;
64543;SDS011;50936;51.660;5.616;2023-03-26T10:00:33;13.23;;;6.07;;
64543;SDS011;50936;51.660;5.616;2023-03-26T10:06:32;16.33;;;6.93;;
64543;SDS011;50936;51.660;5.616;2023-03-26T10:20:30;18.58;;;8.43;;
64543;SDS011;50936;51.660;5.616;2023-03-26T10:26:40;14.80;;;4.68;;
64543;SDS011;50936;51.660;5.616;2023-03-26T10:32:32;13.43;;;4.10;;
64543;SDS011;50936;51.660;5.616;2023-03-26T10:49:49;11.60;;;3.60;;
64543;SDS011;50936;51.660;5.616;2023-03-26T10:52:30;13.38;;;3.83;;
64543;SDS011;50936;51.660;5.616;2023-03-26T10:55:50;10.38;;;4.05;;
64543;SDS011;50936;51.660;5.616;2023-03-26T11:01:17;8.55;;;3.15;;
64543;SDS011;50936;51.660;5.616;2023-03-26T11:03:55;11.13;;;4.03;;
64543;SDS011;50936;51.660;5.616;2023-03-26T11:15:39;10.23;;;3.33;;
64543;SDS011;50936;51.660;5.616;2023-03-26T11:24:25;12.20;;;5.15;;
64543;SDS011;50936;51.660;5.616;2023-03-26T11:28:09;14.30;;;4.95;;
64543;SDS011;50936;51.660;5.616;2023-03-26T11:31:08;10.15;;;4.63;;
64543;SDS011;50936;51.660;5.616;2023-03-26T11:34:18;7.18;;;2.25;;
64543;SDS011;50936;51.660;5.616;2023-03-26T11:36:53;8.85;;;2.80;;
64543;SDS011;50936;51.660;5.616;2023-03-26T11:39:27;5.97;;;2.25;;
64543;SDS011;50936;51.660;5.616;2023-03-26T11:42:07;11.70;;;3.28;;
64543;SDS011;50936;51.660;5.616;2023-03-26T11:45:25;6.85;;;3.08;;
64543;SDS011;50936;51.660;5.616;2023-03-26T11:47:47;8.82;;;3.22;;
64543;SDS011;50936;51.660;5.616;2023-03-26T11:50:27;10.88;;;3.97;;
64543;SDS011;50936;51.660;5.616;2023-03-26T11:53:05;5.90;;;2.83;;
64543;SDS011;50936;51.660;5.616;2023-03-26T11:55:43;8.13;;;3.10;;
64543;SDS011;50936;51.660;5.616;2023-03-26T11:58:45;11.07;;;2.95;;
64543;SDS011;50936;51.660;5.616;2023-03-26T12:01:24;11.25;;;4.40;;
64543;SDS011;50936;51.660;5.616;2023-03-26T12:03:58;5.30;;;2.67;;
64543;SDS011;50936;51.660;5.616;2023-03-26T12:06:36;10.50;;;3.42;;
64543;SDS011;50936;51.660;5.616;2023-03-26T12:09:03;10.27;;;3.35;;
64543;SDS011;50936;51.660;5.616;2023-03-26T12:11:40;8.25;;;3.65;;
64543;SDS011;50936;51.660;5.616;2023-03-26T12:14:15;7.63;;;2.97;;
64543;SDS011;50936;51.660;5.616;2023-03-26T12:17:00;7.55;;;3.38;;
64543;SDS011;50936;51.660;5.616;2023-03-26T12:19:34;6.40;;;3.28;;
64543;SDS011;50936;51.660;5.616;2023-03-26T12:22:05;9.25;;;2.90;;
64543;SDS011;50936;51.660;5.616;2023-03-26T12:27:44;12.95;;;3.50;;
64543;SDS011;50936;51.660;5.616;2023-03-26T12:32:46;8.25;;;4.10;;
64543;SDS011;50936;51.660;5.616;2023-03-26T12:35:21;11.65;;;4.03;;
64543;SDS011;50936;51.660;5.616;2023-03-26T12:37:53;7.78;;;3.22;;
64543;SDS011;50936;51.660;5.616;2023-03-26T12:40:39;10.93;;;3.17;;
64543;SDS011;50936;51.660;5.616;2023-03-26T12:43:27;8.82;;;2.83;;
64543;SDS011;50936;51.660;5.616;2023-03-26T12:46:32;6.25;;;2.85;;
64543;SDS011;50936;51.660;5.616;2023-03-26T12:49:21;9.18;;;3.35;;
64543;SDS011;50936;51.660;5.616;2023-03-26T12:51:49;7.43;;;3.00;;
64543;SDS011;50936;51.660;5.616;2023-03-26T13:00:13;9.45;;;3.15;;
64543;SDS011;50936;51.660;5.616;2023-03-26T13:06:24;8.85;;;3.92;;
64543;SDS011;50936;51.660;5.616;2023-03-26T13:19:26;8.07;;;3.00;;
64543;SDS011;50936;51.660;5.616;2023-03-26T13:25:16;7.30;;;3.58;;
64543;SDS011;50936;51.660;5.616;2023-03-26T13:28:14;11.43;;;4.80;;
64543;SDS011;50936;51.660;5.616;2023-03-26T13:31:21;10.65;;;3.83;;
64543;SDS011;50936;51.660;5.616;2023-03-26T13:37:21;14.13;;;5.68;;
64543;SDS011;50936;51.660;5.616;2023-03-26T13:52:09;27.00;;;8.00;;
64543;SDS011;50936;51.660;5.616;2023-03-26T14:01:08;19.25;;;5.75;;
64543;SDS011;50936;51.660;5.616;2023-03-26T14:03:57;28.42;;;6.90;;
64543;SDS011;50936;51.660;5.616;2023-03-26T14:06:42;25.20;;;7.35;;
64543;SDS011;50936;51.660;5.616;2023-03-26T14:09:55;16.33;;;5.20;;
64543;SDS011;50936;51.660;5.616;2023-03-26T14:18:15;14.73;;;5.40;;
64543;SDS011;50936;51.660;5.616;2023-03-26T14:23:47;24.45;;;7.45;;
64543;SDS011;50936;51.660;5.616;2023-03-26T14:30:08;18.30;;;4.30;;
64543;SDS011;50936;51.660;5.616;2023-03-26T14:38:32;18.58;;;4.43;;
64543;SDS011;50936;51.660;5.616;2023-03-26T14:49:24;25.27;;;4.32;;
64543;SDS011;50936;51.660;5.616;2023-03-26T14:52:09;21.90;;;4.53;;
64543;SDS011;50936;51.660;5.616;2023-03-26T14:55:00;21.63;;;4.25;;
64543;SDS011;50936;51.660;5.616;2023-03-26T14:57:50;21.50;;;4.47;;
64543;SDS011;50936;51.660;5.616;2023-03-26T15:34:50;6.03;;;2.35;;
64543;SDS011;50936;51.660;5.616;2023-03-26T15:52:45;11.35;;;3.15;;
64543;SDS011;50936;51.660;5.616;2023-03-26T15:58:39;16.27;;;3.63;;
64543;SDS011;50936;51.660;5.616;2023-03-26T16:02:15;12.30;;;3.60;;
64543;SDS011;50936;51.660;5.616;2023-03-26T16:10:32;12.13;;;3.03;;
64543;SDS011;50936;51.660;5.616;2023-03-26T16:18:31;11.60;;;4.07;;
64543;SDS011;50936;51.660;5.616;2023-03-26T16:34:44;10.73;;;2.40;;
64543;SDS011;50936;51.660;5.616;2023-03-26T16:52:19;10.40;;;2.80;;
64543;SDS011;50936;51.660;5.616;2023-03-26T16:55:02;11.65;;;3.17;;
64543;SDS011;50936;51.660;5.616;2023-03-26T17:06:25;23.30;;;2.85;;
64543;SDS011;50936;51.660;5.616;2023-03-26T17:09:40;11.82;;;2.55;;
64543;SDS011;50936;51.660;5.616;2023-03-26T17:20:52;10.75;;;2.80;;
64543;SDS011;50936;51.660;5.616;2023-03-26T17:27:31;12.60;;;2.42;;
64543;SDS011;50936;51.660;5.616;2023-03-26T17:35:35;11.68;;;2.75;;
64543;SDS011;50936;51.660;5.616;2023-03-26T17:38:08;12.38;;;2.40;;
64543;SDS011;50936;51.660;5.616;2023-03-26T17:40:55;10.30;;;2.08;;
64543;SDS011;50936;51.660;5.616;2023-03-26T17:43:40;12.30;;;2.50;;
64543;SDS011;50936;51.660;5.616;2023-03-26T17:51:55;14.27;;;2.90;;
64543;SDS011;50936;51.660;5.616;2023-03-26T17:54:44;11.07;;;2.17;;
64543;SDS011;50936;51.660;5.616;2023-03-26T17:57:20;12.27;;;2.53;;
64543;SDS011;50936;51.660;5.616;2023-03-26T17:59:56;6.47;;;2.03;;
64543;SDS011;50936;51.660;5.616;2023-03-26T18:02:38;10.70;;;2.55;;
64543;SDS011;50936;51.660;5.616;2023-03-26T18:05:15;8.55;;;2.38;;
64543;SDS011;50936;51.660;5.616;2023-03-26T18:10:36;11.70;;;2.03;;
64543;SDS011;50936;51.660;5.616;2023-03-26T18:18:53;9.95;;;1.83;;
64543;SDS011;50936;51.660;5.616;2023-03-26T18:24:12;10.50;;;1.70;;
64543;SDS011;50936;51.660;5.616;2023-03-26T18:26:47;8.57;;;1.77;;
64543;SDS011;50936;51.660;5.616;2023-03-26T18:29:21;9.50;;;1.42;;
64543;SDS011;50936;51.660;5.616;2023-03-26T18:31:59;10.00;;;1.90;;
64543;SDS011;50936;51.660;5.616;2023-03-26T18:34:32;9.60;;;1.70;;
64543;SDS011;50936;51.660;5.616;2023-03-26T18:37:22;8.40;;;1.98;;
64543;SDS011;50936;51.660;5.616;2023-03-26T18:42:38;8.80;;;1.90;;
64543;SDS011;50936;51.660;5.616;2023-03-26T18:45:23;11.80;;;2.60;;
64543;SDS011;50936;51.660;5.616;2023-03-26T18:48:03;7.82;;;1.77;;
64543;SDS011;50936;51.660;5.616;2023-03-26T18:50:39;10.98;;;2.75;;
64543;SDS011;50936;51.660;5.616;2023-03-26T18:53:08;7.05;;;2.03;;
64543;SDS011;50936;51.660;5.616;2023-03-26T18:55:47;12.18;;;1.92;;
64543;SDS011;50936;51.660;5.616;2023-03-26T18:58:25;2.75;;;1.10;;
64543;SDS011;50936;51.660;5.616;2023-03-26T19:00:57;10.05;;;1.83;;
64543;SDS011;50936;51.660;5.616;2023-03-26T19:03:39;6.22;;;1.33;;
64543;SDS011;50936;51.660;5.616;2023-03-26T19:06:10;6.70;;;1.50;;
64543;SDS011;50936;51.660;5.616;2023-03-26T19:08:40;9.80;;;1.73;;
64543;SDS011;50936;51.660;5.616;2023-03-26T19:11:11;7.43;;;2.08;;
64543;SDS011;50936;51.660;5.616;2023-03-26T19:13:43;6.60;;;1.40;;
64543;SDS011;50936;51.660;5.616;2023-03-26T19:16:24;9.50;;;1.65;;
64543;SDS011;50936;51.660;5.616;2023-03-26T19:18:59;9.20;;;1.90;;
64543;SDS011;50936;51.660;5.616;2023-03-26T19:21:32;7.40;;;1.40;;
64543;SDS011;50936;51.660;5.616;2023-03-26T19:24:01;12.10;;;1.73;;
64543;SDS011;50936;51.660;5.616;2023-03-26T19:26:30;5.28;;;1.83;;
64543;SDS011;50936;51.660;5.616;2023-03-26T19:28:57;9.05;;;2.22;;
64543;SDS011;50936;51.660;5.616;2023-03-26T19:31:31;10.93;;;1.70;;
64543;SDS011;50936;51.660;5.616;2023-03-26T19:34:02;10.55;;;1.92;;
64543;SDS011;50936;51.660;5.616;2023-03-26T19:36:48;8.75;;;1.98;;
64543;SDS011;50936;51.660;5.616;2023-03-26T19:39:24;8.20;;;1.38;;
64543;SDS011;50936;51.660;5.616;2023-03-26T19:42:11;8.07;;;1.50;;
64543;SDS011;50936;51.660;5.616;2023-03-26T19:44:43;9.60;;;2.25;;
64543;SDS011;50936;51.660;5.616;2023-03-26T19:47:20;10.50;;;1.95;;
64543;SDS011;50936;51.660;5.616;2023-03-26T19:50:13;6.22;;;1.90;;
64543;SDS011;50936;51.660;5.616;2023-03-26T19:56:02;7.68;;;1.80;;
64543;SDS011;50936;51.660;5.616;2023-03-26T19:58:43;9.90;;;1.55;;
64543;SDS011;50936;51.660;5.616;2023-03-26T20:01:21;14.13;;;1.90;;
64543;SDS011;50936;51.660;5.616;2023-03-26T20:03:56;9.68;;;1.73;;
64543;SDS011;50936;51.660;5.616;2023-03-26T20:06:29;11.48;;;2.00;;
64543;SDS011;50936;51.660;5.616;2023-03-26T20:09:09;8.68;;;2.22;;
64543;SDS011;50936;51.660;5.616;2023-03-26T20:11:38;7.57;;;1.92;;
64543;SDS011;50936;51.660;5.616;2023-03-26T20:14:10;5.38;;;1.65;;
64543;SDS011;50936;51.660;5.616;2023-03-26T20:16:40;9.63;;;1.70;;
64543;SDS011;50936;51.660;5.616;2023-03-26T20:19:10;6.47;;;2.00;;
64543;SDS011;50936;51.660;5.616;2023-03-26T20:21:39;9.20;;;1.80;;
64543;SDS011;50936;51.660;5.616;2023-03-26T20:24:11;9.70;;;1.75;;
64543;SDS011;50936;51.660;5.616;2023-03-26T20:26:42;9.82;;;1.50;;
64543;SDS011;50936;51.660;5.616;2023-03-26T20:29:13;6.65;;;1.73;;
64543;SDS011;50936;51.660;5.616;2023-03-26T20:31:41;10.93;;;1.85;;
64543;SDS011;50936;51.660;5.616;2023-03-26T20:34:17;11.35;;;1.70;;
64543;SDS011;50936;51.660;5.616;2023-03-26T20:36:49;4.53;;;1.55;;
64543;SDS011;50936;51.660;5.616;2023-03-26T20:39:26;9.40;;;1.73;;
64543;SDS011;50936;51.660;5.616;2023-03-26T20:41:54;8.73;;;1.70;;
64543;SDS011;50936;51.660;5.616;2023-03-26T20:44:21;5.03;;;1.30;;
64543;SDS011;50936;51.660;5.616;2023-03-26T20:46:49;7.10;;;1.60;;
64543;SDS011;50936;51.660;5.616;2023-03-26T20:49:17;7.43;;;1.40;;
64543;SDS011;50936;51.660;5.616;2023-03-26T20:51:47;12.50;;;2.22;;
64543;SDS011;50936;51.660;5.616;2023-03-26T20:54:15;7.55;;;1.60;;
64543;SDS011;50936;51.660;5.616;2023-03-26T20:56:49;12.23;;;1.80;;
64543;SDS011;50936;51.660;5.616;2023-03-26T20:59:22;7.97;;;1.65;;
64543;SDS011;50936;51.660;5.616;2023-03-26T21:01:55;12.27;;;2.53;;
64543;SDS011;50936;51.660;5.616;2023-03-26T21:04:25;7.22;;;1.50;;
64543;SDS011;50936;51.660;5.616;2023-03-26T21:06:52;10.95;;;1.60;;
64543;SDS011;50936;51.660;5.616;2023-03-26T21:09:32;10.35;;;2.15;;
64543;SDS011;50936;51.660;5.616;2023-03-26T21:12:04;9.25;;;2.00;;
64543;SDS011;50936;51.660;5.616;2023-03-26T21:14:37;11.38;;;1.65;;
64543;SDS011;50936;51.660;5.616;2023-03-26T21:17:17;20.13;;;2.30;;
64543;SDS011;50936;51.660;5.616;2023-03-26T21:19:47;7.30;;;1.70;;
64543;SDS011;50936;51.660;5.616;2023-03-26T21:27:49;9.65;;;1.65;;
64543;SDS011;50936;51.660;5.616;2023-03-26T21:30:35;8.90;;;2.10;;
64543;SDS011;50936;51.660;5.616;2023-03-26T21:33:02;9.45;;;1.70;;
64543;SDS011;50936;51.660;5.616;2023-03-26T21:35:30;11.68;;;2.10;;
64543;SDS011;50936;51.660;5.616;2023-03-26T21:38:01;10.35;;;1.55;;
64543;SDS011;50936;51.660;5.616;2023-03-26T21:40:30;9.18;;;1.75;;
64543;SDS011;50936;51.660;5.616;2023-03-26T21:42:57;8.13;;;1.73;;
64543;SDS011;50936;51.660;5.616;2023-03-26T21:45:25;8.73;;;2.15;;
64543;SDS011;50936;51.660;5.616;2023-03-26T21:47:53;8.85;;;1.73;;
64543;SDS011;50936;51.660;5.616;2023-03-26T21:50:21;12.07;;;2.28;;
64543;SDS011;50936;51.660;5.616;2023-03-26T21:52:50;9.88;;;1.77;;
64543;SDS011;50936;51.660;5.616;2023-03-26T21:55:18;8.73;;;1.80;;
64543;SDS011;50936;51.660;5.616;2023-03-26T22:00:33;14.43;;;1.70;;